Time;durP1;ratioP1;P1;durP2;ratioP2;P2;SDS_P1;SDS_P2;PMS_P1;PMS_P2;Temp;Humidity;BMP_temperature;BMP_pressure;BME280_temperature;BME280_humidity;BME280_pressure;Samples;Min_cycle;Max_cycle;Signal;HPM_P1;HPM_P2
2023/12/10 00:00:10;;;;;;;0.70;0.70;;;;;;;5.10;55.54;101495.66;4883001;29;20837;-95
2023/12/10 00:02:36;;;;;;;0.40;0.40;;;;;;;5.03;55.59;101492.63;4880112;29;20501;-94
2023/12/10 00:05:02;;;;;;;0.28;0.28;;;;;;;5.05;55.76;101482.03;4881252;29;20422;-92
2023/12/10 00:07:27;;;;;;;0.10;0.10;;;;;;;5.13;55.55;101485.75;4880476;29;20417;-93
2023/12/10 00:09:53;;;;;;;0.30;0.30;;;;;;;5.13;55.26;101472.59;4880659;29;20399;-94
2023/12/10 00:12:19;;;;;;;0.65;0.65;;;;;;;5.09;55.19;101473.78;4882651;29;20444;-94
2023/12/10 00:14:49;;;;;;;0.52;0.43;;;;;;;5.13;55.07;101464.72;4904624;29;20441;-93
2023/12/10 00:17:24;;;;;;;0.40;0.30;;;;;;;5.19;55.30;101460.78;4903243;29;20494;-94
2023/12/10 00:19:50;;;;;;;0.20;0.20;;;;;;;5.12;55.59;101464.84;4876405;29;20433;-95
2023/12/10 00:22:16;;;;;;;0.30;0.30;;;;;;;5.21;55.43;101460.69;4884480;29;20414;-95
2023/12/10 00:24:44;;;;;;;0.20;0.20;;;;;;;5.25;55.41;101446.34;4885240;29;20436;-95
2023/12/10 00:27:10;;;;;;;0.38;0.38;;;;;;;5.07;55.25;101423.13;4902035;29;20775;-95
2023/12/10 00:29:36;;;;;;;0.45;0.40;;;;;;;5.17;55.83;101447.75;4884457;29;20409;-95
2023/12/10 00:32:02;;;;;;;1.30;0.90;;;;;;;5.04;55.80;101425.16;4887363;29;20410;-96
2023/12/10 00:34:28;;;;;;;0.60;0.47;;;;;;;5.17;55.74;101431.16;4898508;29;20420;-94
2023/12/10 00:37:09;;;;;;;0.60;0.40;;;;;;;5.23;55.24;101432.47;4918907;29;20414;-94
2023/12/10 00:39:35;;;;;;;0.47;0.30;;;;;;;5.19;55.74;101431.06;4913986;29;20426;-95
2023/12/10 00:42:01;;;;;;;0.60;0.60;;;;;;;5.27;55.59;101423.41;4887644;29;20422;-93
2023/12/10 00:44:28;;;;;;;0.40;0.25;;;;;;;5.27;55.43;101426.84;4900718;29;20402;-95
2023/12/10 00:46:54;;;;;;;0.30;0.30;;;;;;;5.36;55.35;101438.47;4882810;29;20442;-94
2023/12/10 00:52:42;;;;;;;0.20;0.20;;;;;;;5.28;55.20;101427.72;4899786;29;20421;-96
2023/12/10 00:55:08;;;;;;;0.30;0.30;;;;;;;5.19;55.75;101415.28;4881231;29;20410;-94
2023/12/10 00:57:42;;;;;;;0.20;0.20;;;;;;;5.13;55.37;101414.78;4901947;29;20409;-92
2023/12/10 01:00:08;;;;;;;0.50;0.50;;;;;;;5.13;56.03;101421.81;4901763;29;20429;-92
2023/12/10 01:05:55;;;;;;;0.30;0.30;;;;;;;5.02;55.88;101411.28;4897691;29;20413;-92
2023/12/10 01:08:21;;;;;;;0.50;0.50;;;;;;;4.98;56.08;101405.44;4881165;29;20406;-94
2023/12/10 01:10:48;;;;;;;0.40;0.40;;;;;;;4.99;56.23;101412.38;4897116;29;20442;-95
2023/12/10 01:13:14;;;;;;;0.50;0.50;;;;;;;5.01;55.79;101412.25;4881420;29;20469;-95
2023/12/10 01:15:40;;;;;;;0.55;0.55;;;;;;;4.98;55.81;101397.56;4850440;29;20446;-96
2023/12/10 01:18:06;;;;;;;0.20;0.20;;;;;;;4.96;55.79;101395.03;4896151;29;20498;-96
2023/12/10 01:20:32;;;;;;;0.20;0.20;;;;;;;4.96;55.82;101386.31;4881014;29;20398;-95
2023/12/10 01:22:59;;;;;;;0.30;0.30;;;;;;;4.93;56.13;101389.19;4896082;29;20394;-95
2023/12/10 01:25:26;;;;;;;1.00;1.00;;;;;;;4.96;55.95;101386.31;4880935;29;20406;-96
2023/12/10 01:27:58;;;;;;;0.60;0.40;;;;;;;4.97;55.94;101374.88;4896462;29;20862;-93
2023/12/10 01:30:26;;;;;;;0.17;0.17;;;;;;;5.00;56.14;101382.50;4881105;29;20770;-92
2023/12/10 01:47:39;;;;;;;1.27;0.60;;;;;;;5.30;55.56;101350.38;4916101;29;20429;-96
2023/12/10 01:50:06;;;;;;;1.00;0.90;;;;;;;5.19;55.51;101342.50;4888133;29;20418;-95
2023/12/10 01:52:34;;;;;;;0.67;0.50;;;;;;;5.14;55.58;101352.53;4886921;29;20469;-91
2023/12/10 01:55:03;;;;;;;0.40;0.40;;;;;;;5.11;55.77;101350.16;4868467;29;20879;-92
2023/12/10 01:57:30;;;;;;;0.22;0.22;;;;;;;5.24;55.65;101344.75;4866289;29;20482;-93
2023/12/10 01:59:57;;;;;;;0.22;0.22;;;;;;;5.24;55.30;101342.13;4897657;29;20422;-95
2023/12/10 02:02:24;;;;;;;0.32;0.32;;;;;;;5.12;55.84;101338.69;4883171;29;20477;-92
2023/12/10 02:04:53;;;;;;;0.20;0.20;;;;;;;5.19;55.59;101346.94;4899358;29;20414;-95
2023/12/10 02:11:02;;;;;;;0.20;0.20;;;;;;;5.22;55.54;101358.06;4900470;29;20397;-96
2023/12/10 02:13:30;;;;;;;0.17;0.17;;;;;;;5.26;55.11;101350.78;4873460;29;20524;-93
2023/12/10 02:15:56;;;;;;;0.20;0.20;;;;;;;5.25;55.24;101338.56;4882419;29;20520;-95
2023/12/10 02:18:22;;;;;;;0.40;0.20;;;;;;;5.29;55.18;101346.06;4882810;29;20481;-93
2023/12/10 02:20:56;;;;;;;0.60;0.40;;;;;;;5.28;55.16;101336.53;4896654;29;20402;-95
2023/12/10 02:23:49;;;;;;;0.47;0.40;;;;;;;5.35;55.40;101357.94;4922999;29;20470;-96
2023/12/10 02:26:16;;;;;;;1.10;0.40;;;;;;;5.46;55.50;101357.09;4898184;29;20418;-96
2023/12/10 02:28:44;;;;;;;0.60;0.50;;;;;;;5.49;54.58;101364.72;4900392;29;20410;-95
2023/12/10 02:31:12;;;;;;;1.10;1.00;;;;;;;5.32;54.94;101359.00;4898802;29;20390;-93
2023/12/10 02:33:38;;;;;;;0.30;0.30;;;;;;;5.33;55.38;101360.69;4883542;29;20409;-95
2023/12/10 02:36:17;;;;;;;0.28;0.28;;;;;;;5.32;55.08;101359.00;4883259;29;20425;-95
2023/12/10 02:38:44;;;;;;;0.50;0.50;;;;;;;5.40;55.11;101366.28;4898466;29;20402;-92
2023/12/10 02:41:56;;;;;;;0.30;0.30;;;;;;;5.34;54.74;101364.13;4899058;29;20469;-93
2023/12/10 02:44:22;;;;;;;0.20;0.20;;;;;;;5.30;55.34;101360.91;4905058;29;20438;-94
2023/12/10 02:46:48;;;;;;;0.20;0.20;;;;;;;5.34;55.23;101354.44;4911081;29;20501;-93
2023/12/10 02:49:14;;;;;;;0.13;0.13;;;;;;;5.35;54.98;101352.69;4884850;29;20421;-94
2023/12/10 02:51:40;;;;;;;0.30;0.30;;;;;;;5.36;54.75;101352.53;4899537;29;20493;-95
2023/12/10 02:54:05;;;;;;;0.70;0.70;;;;;;;5.39;54.60;101343.56;4884696;29;20945;-94
2023/12/10 02:56:35;;;;;;;0.30;0.30;;;;;;;5.41;55.37;101352.19;4883931;29;20469;-95
2023/12/10 02:59:03;;;;;;;0.60;0.60;;;;;;;5.35;55.13;101352.69;4898473;29;20402;-95
2023/12/10 03:01:29;;;;;;;0.40;0.40;;;;;;;5.32;55.12;101340.59;4903075;29;20406;-96
2023/12/10 03:03:58;;;;;;;0.40;0.40;;;;;;;5.24;55.61;101345.63;4909303;29;20406;-96
2023/12/10 03:06:24;;;;;;;0.95;0.40;;;;;;;5.13;55.24;101343.84;4904932;29;20402;-95
2023/12/10 03:08:50;;;;;;;0.22;0.22;;;;;;;5.17;55.87;101361.03;4901743;29;20770;-94
2023/12/10 03:11:16;;;;;;;0.30;0.30;;;;;;;5.22;55.78;101357.19;4892023;29;20401;-94
2023/12/10 03:13:42;;;;;;;0.30;0.30;;;;;;;5.15;55.54;101357.69;4874243;29;20422;-95
2023/12/10 03:16:09;;;;;;;0.90;0.60;;;;;;;5.19;55.12;101353.03;4909288;29;20450;-93
2023/12/10 03:18:34;;;;;;;0.45;0.45;;;;;;;5.08;55.33;101345.16;4917170;29;20474;-91
2023/12/10 03:21:00;;;;;;;0.30;0.30;;;;;;;5.05;55.26;101345.38;4900221;29;20410;-92
2023/12/10 03:23:26;;;;;;;0.50;0.50;;;;;;;5.05;55.51;101348.00;4902520;29;20447;-93
2023/12/10 03:25:52;;;;;;;0.20;0.20;;;;;;;5.14;55.58;101365.69;4887906;29;20399;-94
2023/12/10 03:28:17;;;;;;;0.10;0.10;;;;;;;5.16;55.50;101356.72;4882635;29;20442;-93
2023/12/10 03:30:44;;;;;;;0.65;0.65;;;;;;;5.04;55.56;101344.53;4898176;29;20756;-94
2023/12/10 03:33:10;;;;;;;0.20;0.20;;;;;;;5.16;55.29;101332.22;4882311;29;20851;-92
2023/12/10 03:35:36;;;;;;;1.00;0.70;;;;;;;5.21;55.10;101340.59;4896202;29;20985;-92
2023/12/10 03:38:01;;;;;;;0.20;0.20;;;;;;;5.09;55.59;101349.44;4879950;29;20793;-91
2023/12/10 03:40:27;;;;;;;0.37;0.37;;;;;;;5.15;55.32;101341.91;4880111;29;20449;-91
2023/12/10 03:42:57;;;;;;;0.30;0.30;;;;;;;5.11;55.47;101322.09;4864485;29;20423;-94
2023/12/10 03:45:23;;;;;;;0.35;0.35;;;;;;;5.03;55.87;101331.53;4881741;29;20439;-94
2023/12/10 03:47:49;;;;;;;0.50;0.50;;;;;;;4.98;55.71;101322.19;4880490;29;20446;-92
2023/12/10 03:50:16;;;;;;;1.05;1.05;;;;;;;5.08;55.85;101326.75;4895117;29;20401;-93
2023/12/10 03:52:42;;;;;;;0.77;0.77;;;;;;;5.08;55.58;101330.22;4895390;29;21163;-91
2023/12/10 03:55:08;;;;;;;0.32;0.32;;;;;;;5.23;55.72;101332.59;4880941;29;20509;-93
2023/12/10 03:57:36;;;;;;;0.38;0.38;;;;;;;5.26;55.62;101332.38;4880833;29;20429;-92
2023/12/10 04:00:04;;;;;;;0.75;0.75;;;;;;;5.22;55.56;101333.53;4880143;29;20407;-91
2023/12/10 04:02:30;;;;;;;0.30;0.30;;;;;;;5.18;55.82;101353.97;4879994;29;20906;-92
2023/12/10 04:04:59;;;;;;;0.20;0.20;;;;;;;5.11;55.81;101344.88;4880744;29;20434;-92
2023/12/10 04:07:25;;;;;;;0.25;0.25;;;;;;;5.11;55.77;101345.75;4881150;29;20410;-93
2023/12/10 04:09:52;;;;;;;0.40;0.40;;;;;;;5.00;55.91;101337.00;4881376;29;20409;-92
2023/12/10 04:12:18;;;;;;;0.63;0.63;;;;;;;4.89;56.55;101324.69;4882212;29;20465;-93
2023/12/10 04:14:47;;;;;;;0.80;0.80;;;;;;;4.98;56.24;101335.31;4873004;29;20466;-93
2023/12/10 04:17:13;;;;;;;0.13;0.13;;;;;;;5.09;55.82;101344.19;4884818;29;20402;-93
2023/12/10 04:19:44;;;;;;;0.57;0.47;;;;;;;5.11;56.16;101331.75;4889944;29;20454;-96
2023/12/10 04:22:10;;;;;;;0.20;0.20;;;;;;;5.20;55.73;101333.66;4874415;29;20398;-95
2023/12/10 04:24:39;;;;;;;0.50;0.50;;;;;;;5.22;55.49;101341.44;4893314;29;20414;-93
2023/12/10 04:39:55;;;;;;;0.20;0.20;;;;;;;5.21;55.52;101337.16;4861791;29;20450;-93
2023/12/10 04:42:24;;;;;;;0.17;0.17;;;;;;;5.25;55.39;101338.56;4829287;29;20426;-95
2023/12/10 04:44:49;;;;;;;0.20;0.20;;;;;;;5.13;56.13;101330.69;4842855;29;20452;-94
2023/12/10 04:47:19;;;;;;;0.50;0.50;;;;;;;5.11;55.96;101344.88;4867070;29;20425;-95
2023/12/10 04:49:45;;;;;;;0.38;0.38;;;;;;;5.05;56.26;101348.00;4866989;29;20409;-93
2023/12/10 04:52:13;;;;;;;0.80;0.80;;;;;;;5.02;56.39;101350.84;4852531;29;20410;-93
2023/12/10 04:54:39;;;;;;;0.55;0.55;;;;;;;5.05;56.46;101346.19;4847204;29;20477;-93
2023/12/10 04:57:24;;;;;;;0.67;0.67;;;;;;;5.01;56.49;101333.44;4857737;29;20477;-94
2023/12/10 04:59:57;;;;;;;0.40;0.40;;;;;;;4.95;56.68;101330.31;4840083;29;20444;-94
2023/12/10 05:02:30;;;;;;;0.20;0.20;;;;;;;4.90;56.93;101323.75;4856985;29;20445;-94
2023/12/10 05:04:56;;;;;;;0.60;0.60;;;;;;;4.89;56.96;101335.19;4844623;29;20441;-94
2023/12/10 05:07:21;;;;;;;0.55;0.55;;;;;;;4.92;56.88;101334.97;4843732;29;20429;-93
2023/12/10 05:09:47;;;;;;;0.60;0.60;;;;;;;5.02;56.78;101351.69;4850689;29;20932;-93
2023/12/10 05:12:13;;;;;;;0.10;0.10;;;;;;;4.97;56.96;101344.16;4844111;29;20436;-91
2023/12/10 05:14:43;;;;;;;0.17;0.17;;;;;;;4.92;56.55;101335.81;4829676;29;20497;-91
2023/12/10 05:17:09;;;;;;;0.32;0.32;;;;;;;5.07;56.50;101354.81;4828841;29;20930;-91
2023/12/10 05:19:35;;;;;;;0.17;0.17;;;;;;;5.16;56.48;101342.75;4828026;29;20411;-91
2023/12/10 05:22:16;;;;;;;;;;;;;;;;;;;;;
2023/12/10 05:24:52;;;;;;;0.67;0.53;;;;;;;5.10;56.38;101348.50;4791462;29;20440;-95
2023/12/10 05:27:20;;;;;;;0.30;0.30;;;;;;;5.06;56.39;101349.66;4816390;29;20411;-94
2023/12/10 05:29:50;;;;;;;0.57;0.57;;;;;;;5.08;56.73;101366.16;4829935;29;20419;-93
2023/12/10 05:32:16;;;;;;;0.55;0.55;;;;;;;5.09;56.55;101354.69;4829280;29;20499;-94
2023/12/10 05:34:42;;;;;;;0.60;0.60;;;;;;;5.16;56.70;101345.38;4814847;29;20523;-94
2023/12/10 05:37:10;;;;;;;0.40;0.40;;;;;;;5.28;56.45;101357.56;4829508;29;20426;-94
2023/12/10 05:39:36;;;;;;;0.37;0.37;;;;;;;5.22;56.43;101344.91;4837391;29;20462;-96
2023/12/10 05:42:02;;;;;;;0.32;0.32;;;;;;;5.15;56.65;101343.72;4855472;29;20410;-95
2023/12/10 05:52:01;;;;;;;;;;;;;;;;;;;;;
2023/12/10 05:57:43;;;;;;;0.98;0.98;;;;;;;5.08;56.81;101342.53;4811757;29;20471;-93
2023/12/10 06:00:10;;;;;;;0.10;0.10;;;;;;;5.05;57.41;101346.19;4850928;29;20398;-92
2023/12/10 06:02:35;;;;;;;0.20;0.20;;;;;;;5.18;56.65;101353.97;4861826;29;20409;-93
2023/12/10 06:05:02;;;;;;;0.43;0.43;;;;;;;5.17;56.47;101347.88;4859552;29;20480;-94
2023/12/10 06:07:29;;;;;;;0.47;0.45;;;;;;;5.19;56.90;101354.81;4862808;29;20416;-94
2023/12/10 06:10:08;;;;;;;;;;;;;;;;;;;;;
2023/12/10 06:51:51;;;;;;;2.30;1.27;;;;;;;5.40;56.72;101383.84;1395809;23;20717;-90
2023/12/10 06:54:18;;;;;;;1.70;1.20;;;;;;;5.28;56.55;101369.88;4893066;29;20459;-89
2023/12/10 06:56:46;;;;;;;0.40;0.40;;;;;;;5.24;57.12;101369.28;4886881;29;20430;-89
2023/12/10 06:59:13;;;;;;;1.05;1.02;;;;;;;5.29;56.58;101368.91;4884454;29;20399;-90
2023/12/10 07:01:39;;;;;;;0.40;0.40;;;;;;;5.30;56.56;101383.75;4868492;29;20475;-90
2023/12/10 07:04:10;;;;;;;0.50;0.50;;;;;;;5.22;56.76;101367.72;4884145;29;20402;-90
2023/12/10 07:06:39;;;;;;;0.20;0.20;;;;;;;5.07;56.62;101373.19;4876116;29;20394;-90
2023/12/10 07:09:18;;;;;;;0.47;0.47;;;;;;;5.01;57.15;101376.31;4888081;29;20447;-93
2023/12/10 07:12:10;;;;;;;0.47;0.47;;;;;;;5.17;56.93;101386.47;4832006;29;20393;-91
2023/12/10 07:14:37;;;;;;;1.40;1.23;;;;;;;5.09;57.07;101380.97;4883097;29;20414;-92
2023/12/10 07:17:09;;;;;;;0.80;0.80;;;;;;;5.01;57.71;101378.94;4885607;29;20413;-91
2023/12/10 07:19:41;;;;;;;1.35;1.25;;;;;;;5.13;57.09;101391.13;4884778;29;20409;-90
2023/12/10 07:25:31;;;;;;;0.68;0.68;;;;;;;5.05;57.50;101390.03;4901765;29;20786;-89
2023/12/10 07:28:19;;;;;;;0.30;0.30;;;;;;;5.09;56.99;101373.09;4885981;29;20402;-92
2023/12/10 07:30:48;;;;;;;1.27;1.20;;;;;;;5.12;57.43;101380.75;4900078;29;20409;-92
2023/12/10 07:33:13;;;;;;;2.53;2.42;;;;;;;5.08;57.21;101385.41;4886223;29;20569;-93
2023/12/10 07:35:39;;;;;;;0.73;0.73;;;;;;;5.13;57.17;101396.41;4885452;29;20422;-91
2023/12/10 07:38:05;;;;;;;0.40;0.40;;;;;;;5.20;56.70;101395.91;4883001;29;20418;-89
2023/12/10 07:40:31;;;;;;;0.30;0.25;;;;;;;5.24;56.91;101399.97;4885560;29;20424;-91
2023/12/10 07:42:57;;;;;;;0.57;0.57;;;;;;;5.33;56.70;101394.00;4884848;29;20607;-90
2023/12/10 07:45:25;;;;;;;0.57;0.57;;;;;;;5.42;56.55;101402.97;4879292;29;20428;-91
2023/12/10 07:47:51;;;;;;;0.30;0.30;;;;;;;5.55;56.44;101394.00;4877201;29;20558;-93
2023/12/10 07:50:17;;;;;;;0.60;0.60;;;;;;;5.59;56.04;101396.41;4879530;29;20421;-91
2023/12/10 07:52:45;;;;;;;3.60;0.80;;;;;;;5.51;56.48;101389.94;4869539;29;20490;-96
2023/12/10 07:55:24;;;;;;;0.75;0.50;;;;;;;5.54;56.15;101391.50;4899232;29;20432;-92
2023/12/10 07:58:09;;;;;;;0.38;0.38;;;;;;;5.49;56.71;101383.97;4896403;29;20459;-94
2023/12/10 08:00:35;;;;;;;0.30;0.30;;;;;;;5.46;56.66;101399.16;4890703;29;20594;-89
2023/12/10 08:03:05;;;;;;;0.70;0.70;;;;;;;5.47;56.68;101393.75;4884788;29;20476;-92
2023/12/10 08:05:34;;;;;;;0.32;0.32;;;;;;;5.46;56.81;101396.53;4884140;29;20428;-93
2023/12/10 08:08:03;;;;;;;0.45;0.45;;;;;;;5.49;56.39;101404.16;4871178;29;20407;-90
2023/12/10 08:10:29;;;;;;;0.10;0.10;;;;;;;5.60;55.94;101406.81;4864145;29;20404;-89
2023/12/10 08:12:55;;;;;;;0.88;0.63;;;;;;;5.74;55.77;101413.59;4875389;29;20416;-93
2023/12/10 08:15:21;;;;;;;1.10;0.90;;;;;;;5.69;56.25;101415.75;4907099;29;20527;-89
2023/12/10 08:17:47;;;;;;;0.65;0.65;;;;;;;5.67;56.02;101413.25;4913686;29;20470;-89
2023/12/10 08:20:13;;;;;;;0.65;0.65;;;;;;;5.68;56.22;101408.81;4914069;29;20904;-92
2023/12/10 08:22:39;;;;;;;0.40;0.30;;;;;;;5.71;55.83;101403.34;4919403;29;20411;-90
2023/12/10 08:25:05;;;;;;;0.30;0.30;;;;;;;5.74;55.96;101403.94;4908258;29;20416;-91
2023/12/10 08:27:31;;;;;;;1.40;1.20;;;;;;;5.83;55.50;101422.56;4919928;29;20405;-90
2023/12/10 08:30:00;;;;;;;0.17;0.17;;;;;;;5.84;55.70;101406.66;4911977;29;20748;-90
2023/12/10 08:32:27;;;;;;;0.30;0.30;;;;;;;5.81;55.60;101411.31;4906339;29;20428;-91
2023/12/10 08:34:53;;;;;;;0.22;0.22;;;;;;;5.85;55.66;101410.97;4918276;29;20400;-91
2023/12/10 08:37:19;;;;;;;0.40;0.40;;;;;;;5.89;55.57;101414.19;4922828;29;20488;-93
2023/12/10 08:39:48;;;;;;;2.70;1.55;;;;;;;6.06;55.40;101418.13;4923319;29;20403;-90
2023/12/10 08:42:13;;;;;;;0.70;0.70;;;;;;;6.09;55.34;101408.19;4900149;29;20531;-92
2023/12/10 08:44:39;;;;;;;0.20;0.20;;;;;;;6.20;55.25;101412.59;4920109;29;20435;-92
2023/12/10 08:47:07;;;;;;;0.90;0.90;;;;;;;6.22;55.29;101408.03;4901225;29;20398;-92
2023/12/10 08:49:33;;;;;;;0.30;0.25;;;;;;;6.21;54.89;101410.78;4902550;29;20408;-92
2023/12/10 08:52:07;;;;;;;0.32;0.32;;;;;;;6.16;55.09;101400.63;4925702;29;20410;-93
2023/12/10 08:54:34;;;;;;;1.60;1.50;;;;;;;6.24;55.05;101390.31;4921399;29;20476;-91
2023/12/10 08:57:02;;;;;;;6.60;0.93;;;;;;;6.37;55.21;101390.13;4921285;29;20457;-91
2023/12/10 08:59:28;;;;;;;0.52;0.52;;;;;;;6.36;54.97;101385.84;4907514;29;20439;-94
2023/12/10 09:01:58;;;;;;;0.80;0.40;;;;;;;6.46;54.61;101397.31;4904895;29;21009;-94
2023/12/10 09:04:30;;;;;;;1.00;0.70;;;;;;;6.58;55.37;101402.50;4921576;29;20411;-92
2023/12/10 09:06:56;;;;;;;0.40;0.40;;;;;;;6.52;54.93;101374.88;4885620;29;20432;-90
2023/12/10 09:09:22;;;;;;;0.63;0.63;;;;;;;6.51;54.83;101386.38;4901307;29;20435;-91
2023/12/10 09:11:47;;;;;;;0.60;0.55;;;;;;;6.56;55.04;101381.56;4900684;29;20411;-91
2023/12/10 09:14:13;;;;;;;0.40;0.40;;;;;;;6.56;55.19;101372.84;4899593;29;20484;-89
2023/12/10 09:16:41;;;;;;;0.30;0.30;;;;;;;6.57;55.01;101375.34;4900871;29;20475;-90
2023/12/10 09:19:07;;;;;;;0.73;0.73;;;;;;;6.68;54.65;101374.44;4921238;29;20462;-91
2023/12/10 09:21:35;;;;;;;0.65;0.65;;;;;;;6.61;54.98;101365.38;4912805;29;20392;-95
2023/12/10 09:24:08;;;;;;;0.47;0.47;;;;;;;6.62;54.55;101372.31;4911228;29;20400;-94
2023/12/10 09:26:34;;;;;;;1.63;0.60;;;;;;;6.62;54.53;101370.50;4910378;29;20418;-90
2023/12/10 09:29:00;;;;;;;0.60;0.60;;;;;;;6.60;54.68;101369.81;4903848;29;20432;-91
2023/12/10 09:31:31;;;;;;;0.57;0.57;;;;;;;6.63;54.16;101353.75;4906793;29;20542;-91
2023/12/10 09:34:10;;;;;;;0.45;0.38;;;;;;;6.64;54.15;101362.47;4907843;29;20416;-93
2023/12/10 09:36:46;;;;;;;0.28;0.28;;;;;;;6.65;54.39;101354.44;4923461;29;20464;-91
2023/12/10 09:39:18;;;;;;;0.30;0.30;;;;;;;6.82;53.86;101349.56;4907100;29;20401;-93
2023/12/10 09:41:53;;;;;;;0.70;0.70;;;;;;;6.70;53.82;101356.72;4907580;29;20401;-93
2023/12/10 09:44:18;;;;;;;0.63;0.63;;;;;;;6.76;54.01;101344.81;4901467;29;20451;-91
2023/12/10 09:46:44;;;;;;;0.30;0.30;;;;;;;6.79;54.04;101337.50;4903355;29;20393;-92
2023/12/10 09:49:40;;;;;;;0.90;0.45;;;;;;;7.07;54.49;101337.75;4917387;29;20419;-93
2023/12/10 09:52:10;;;;;;;1.50;1.10;;;;;;;7.09;54.13;101341.09;4901961;29;20397;-93
2023/12/10 09:54:40;;;;;;;2.08;1.80;;;;;;;7.13;53.72;101328.47;4897994;29;20561;-91
2023/12/10 09:57:06;;;;;;;0.60;0.50;;;;;;;7.22;54.45;101319.78;4902151;29;20426;-93
2023/12/10 09:59:46;;;;;;;0.55;0.55;;;;;;;7.31;54.14;101310.22;4902935;29;20505;-92
2023/12/10 10:09:53;;;;;;;0.77;0.77;;;;;;;7.30;53.67;101306.78;4883339;29;20524;-92
2023/12/10 10:12:22;;;;;;;0.80;0.40;;;;;;;7.33;53.42;101295.09;4864049;29;20979;-90
2023/12/10 10:14:56;;;;;;;0.45;0.35;;;;;;;7.36;53.26;101293.03;4865809;29;20408;-91
2023/12/10 10:17:32;;;;;;;0.50;0.50;;;;;;;7.43;53.16;101291.53;4872525;29;20494;-90
2023/12/10 10:20:00;;;;;;;1.00;1.00;;;;;;;7.42;53.02;101289.88;4881974;29;20447;-92
2023/12/10 10:22:27;;;;;;;0.40;0.40;;;;;;;7.44;53.02;101284.47;4883130;29;20414;-91
2023/12/10 10:25:03;;;;;;;0.32;0.32;;;;;;;7.44;52.87;101287.09;4883386;29;20406;-90
2023/12/10 10:27:33;;;;;;;0.50;0.50;;;;;;;7.43;52.89;101272.25;4885729;29;20402;-91
2023/12/10 10:30:01;;;;;;;0.75;0.70;;;;;;;7.54;52.80;101285.31;4847107;29;20415;-90
2023/12/10 10:32:30;;;;;;;0.70;0.50;;;;;;;7.68;52.71;101275.34;4864098;29;20405;-90
2023/12/10 10:35:00;;;;;;;1.60;0.80;;;;;;;7.80;52.71;101263.69;4866785;29;20453;-89
2023/12/10 10:37:28;;;;;;;0.70;0.70;;;;;;;7.70;51.93;101258.38;4894025;29;20400;-93
2023/12/10 10:39:55;;;;;;;0.47;0.30;;;;;;;7.65;52.06;101269.38;4885719;29;20461;-94
2023/12/10 10:42:20;;;;;;;0.60;0.60;;;;;;;7.68;52.05;101270.06;4866046;29;20411;-91
2023/12/10 10:44:47;;;;;;;0.70;0.70;;;;;;;7.76;51.83;101276.34;4870137;29;20495;-91
2023/12/10 10:47:15;;;;;;;4.10;3.70;;;;;;;7.74;51.47;101261.59;4871195;29;20412;-91
2023/12/10 10:50:12;;;;;;;2.10;1.98;;;;;;;7.81;51.86;101274.13;4871189;29;20455;-90
2023/12/10 10:52:40;;;;;;;0.80;0.80;;;;;;;7.89;51.53;101262.84;4870905;29;20487;-91
2023/12/10 10:55:07;;;;;;;3.67;1.15;;;;;;;7.81;51.63;101268.84;4869762;29;20431;-91
2023/12/10 10:57:35;;;;;;;1.80;1.70;;;;;;;7.80;51.32;101274.25;4881263;29;20463;-92
2023/12/10 11:00:21;;;;;;;0.75;0.75;;;;;;;7.80;51.55;101269.78;4870746;29;20392;-94
2023/12/10 11:02:54;;;;;;;0.50;0.50;;;;;;;7.92;51.61;101277.56;4865449;29;20478;-89
2023/12/10 11:05:41;;;;;;;0.57;0.57;;;;;;;7.98;51.13;101277.03;4856274;29;20416;-91
2023/12/10 11:08:15;;;;;;;0.30;0.30;;;;;;;7.98;51.22;101282.31;4867669;29;20466;-91
2023/12/10 11:10:58;;;;;;;0.30;0.20;;;;;;;7.98;50.97;101275.22;4887711;29;20449;-91
2023/12/10 11:13:45;;;;;;;0.20;0.20;;;;;;;7.92;50.65;101259.91;4876774;29;20769;-93
2023/12/10 11:16:11;;;;;;;0.50;0.50;;;;;;;7.99;51.12;101270.75;4836310;29;20789;-91
2023/12/10 11:18:59;;;;;;;0.80;0.80;;;;;;;7.95;50.14;101274.66;4881843;29;20489;-93
2023/12/10 11:21:25;;;;;;;0.40;0.40;;;;;;;7.84;50.33;101265.06;4898018;29;20769;-91
2023/12/10 11:23:51;;;;;;;0.50;0.50;;;;;;;7.69;50.57;101255.88;4880868;29;20394;-91
2023/12/10 11:26:20;;;;;;;0.35;0.35;;;;;;;7.69;50.91;101258.53;4883155;29;20402;-92
2023/12/10 11:29:02;;;;;;;0.70;0.70;;;;;;;7.77;50.88;101259.50;4910010;29;20407;-92
2023/12/10 11:31:37;;;;;;;0.60;0.60;;;;;;;7.75;50.45;101250.91;4881121;29;20481;-92
2023/12/10 11:34:09;;;;;;;0.77;0.77;;;;;;;7.70;50.65;101245.19;4883889;29;20400;-91
2023/12/10 11:36:35;;;;;;;0.70;0.70;;;;;;;7.72;50.55;101250.34;4856177;29;20442;-91
2023/12/10 11:39:00;;;;;;;0.20;0.20;;;;;;;7.80;50.75;101255.78;4889144;29;20478;-91
2023/12/10 11:48:41;;;;;;;0.30;0.30;;;;;;;7.58;50.57;101243.66;4902364;29;20401;-91
2023/12/10 11:51:08;;;;;;;0.10;0.10;;;;;;;7.50;50.34;101232.97;4885949;29;20413;-91
2023/12/10 11:53:37;;;;;;;0.70;0.70;;;;;;;7.51;50.67;101240.75;4882101;29;20405;-90
2023/12/10 11:56:03;;;;;;;0.70;0.70;;;;;;;7.46;50.68;101238.50;4836417;29;20431;-91
2023/12/10 11:58:33;;;;;;;0.47;0.47;;;;;;;7.54;50.42;101231.72;4852723;29;20415;-91
2023/12/10 12:01:02;;;;;;;0.50;0.50;;;;;;;7.51;50.41;101237.25;4866993;29;20404;-92
2023/12/10 12:03:34;;;;;;;0.57;0.57;;;;;;;7.47;50.63;101245.47;4887984;29;20470;-90
2023/12/10 12:06:19;;;;;;;0.43;0.43;;;;;;;7.50;50.19;101254.06;4888463;29;20987;-93
2023/12/10 12:09:19;;;;;;;0.30;0.30;;;;;;;7.57;50.38;101255.19;4871009;29;20514;-93
2023/12/10 12:11:48;;;;;;;0.25;0.25;;;;;;;7.57;50.07;101247.28;4886236;29;20431;-93
2023/12/10 12:14:19;;;;;;;0.30;0.30;;;;;;;7.54;50.10;101260.75;4868315;29;20400;-93
2023/12/10 12:16:48;;;;;;;0.98;0.98;;;;;;;7.34;50.44;101250.16;4869253;29;20420;-91
2023/12/10 12:19:28;;;;;;;3.20;1.13;;;;;;;7.23;50.18;101248.44;4885158;29;20409;-92
2023/12/10 12:21:59;;;;;;;0.30;0.30;;;;;;;7.23;50.41;101261.63;4883874;29;20402;-90
2023/12/10 12:24:27;;;;;;;0.10;0.10;;;;;;;7.22;50.64;101248.59;4883819;29;20439;-92
2023/12/10 12:26:54;;;;;;;0.40;0.40;;;;;;;7.31;50.59;101258.34;4883671;29;20430;-92
2023/12/10 12:29:23;;;;;;;0.40;0.40;;;;;;;7.30;50.60;101255.84;4884246;29;20402;-90
2023/12/10 12:31:52;;;;;;;0.35;0.35;;;;;;;7.26;50.47;101269.28;4849870;29;20429;-92
2023/12/10 12:34:33;;;;;;;0.55;0.55;;;;;;;7.21;50.74;101260.13;4851055;29;20541;-92
2023/12/10 12:37:01;;;;;;;0.30;0.30;;;;;;;7.26;50.44;101266.66;4879443;29;20899;-89
2023/12/10 12:39:27;;;;;;;0.30;0.30;;;;;;;7.09;50.88;101267.28;4862006;29;20495;-90
2023/12/10 12:41:53;;;;;;;0.43;0.43;;;;;;;7.06;50.58;101264.94;4881447;29;20406;-94
2023/12/10 12:44:21;;;;;;;0.47;0.30;;;;;;;7.14;50.75;101283.53;4898151;29;20493;-94
2023/12/10 12:46:53;;;;;;;1.10;1.10;;;;;;;7.14;50.42;101273.00;4872376;29;20431;-91
2023/12/10 12:49:24;;;;;;;0.20;0.20;;;;;;;7.14;50.64;101280.06;4864417;29;20463;-92
2023/12/10 12:51:55;;;;;;;0.30;0.30;;;;;;;7.22;50.56;101272.31;4863934;29;21018;-92
2023/12/10 12:54:21;;;;;;;0.55;0.55;;;;;;;7.14;50.79;101274.81;4863630;29;20411;-91
2023/12/10 12:56:46;;;;;;;0.80;0.47;;;;;;;7.10;50.57;101274.25;4863829;29;20428;-91
2023/12/10 12:59:15;;;;;;;1.00;0.50;;;;;;;7.30;50.68;101290.13;4866800;29;20408;-91
2023/12/10 13:01:44;;;;;;;0.30;0.30;;;;;;;7.09;50.59;101288.38;4883522;29;20407;-90
2023/12/10 13:04:18;;;;;;;0.50;0.50;;;;;;;7.06;50.98;101291.28;4917945;29;20445;-91
2023/12/10 13:06:44;;;;;;;0.38;0.38;;;;;;;7.12;51.16;101287.28;4886223;29;20767;-88
2023/12/10 13:09:13;;;;;;;0.50;0.50;;;;;;;6.91;50.82;101280.25;4879753;29;20414;-89
2023/12/10 13:11:53;;;;;;;0.43;0.43;;;;;;;6.98;51.06;101281.38;4863157;29;20483;-88
2023/12/10 13:14:22;;;;;;;0.38;0.38;;;;;;;7.11;50.71;101289.06;4862413;29;20404;-87
2023/12/10 13:16:56;;;;;;;0.77;0.70;;;;;;;6.96;50.84;101291.25;4867164;29;20933;-89
2023/12/10 13:19:26;;;;;;;0.82;0.82;;;;;;;6.88;50.85;101289.28;4850108;29;20489;-91
2023/12/10 13:21:54;;;;;;;0.35;0.35;;;;;;;6.81;51.19;101301.31;4883570;29;20406;-89
2023/12/10 13:24:23;;;;;;;0.57;0.57;;;;;;;6.80;50.98;101294.34;4902864;29;20430;-90
2023/12/10 13:26:49;;;;;;;0.63;0.50;;;;;;;6.71;51.18;101303.03;4882685;29;20413;-89
2023/12/10 13:29:15;;;;;;;0.20;0.20;;;;;;;6.74;51.41;101300.16;4886021;29;20466;-91
2023/12/10 13:31:41;;;;;;;0.37;0.37;;;;;;;6.83;51.17;101295.91;4879136;29;21225;-88